createdAt,value
2022-08-27T15:34:17.377Z,6.85
2022-08-27T15:39:49.250Z,6.53
2022-08-27T15:45:20.759Z,6.78
2022-08-27T15:51:09.682Z,6.57
2022-08-27T15:56:40.931Z,6.72
2022-08-27T16:02:19.252Z,6.90
2022-08-27T16:07:52.251Z,6.85
2022-08-27T16:13:26.330Z,6.45
2022-08-27T16:19:03.236Z,7.18
2022-08-27T16:24:36.209Z,6.78
2022-08-27T16:30:09.151Z,6.45
2022-08-27T16:35:42.474Z,6.50
2022-08-27T16:41:14.719Z,6.43
2022-08-27T16:46:49.157Z,6.47
2022-08-27T16:52:24.601Z,6.75
2022-08-27T16:57:58.504Z,6.38
2022-08-27T17:03:37.754Z,5.97
2022-08-27T17:09:23.709Z,6.80
2022-08-27T17:14:57.218Z,7.18
2022-08-27T17:20:31.106Z,6.97
2022-08-27T17:26:04.212Z,5.57
2022-08-27T17:37:09.893Z,5.93
2022-08-27T17:42:41.583Z,5.53
2022-08-27T17:48:19.151Z,6.15
2022-08-27T17:53:57.221Z,6.45
2022-08-27T17:59:33.483Z,6.17
2022-08-27T18:05:06.243Z,5.53
2022-08-27T18:10:38.262Z,6.22
2022-08-27T18:16:09.600Z,6.82
2022-08-27T18:21:46.762Z,6.63
2022-08-27T18:27:18.867Z,6.63
2022-08-27T18:32:50.598Z,6.17
2022-08-27T18:38:23.839Z,5.80
2022-08-27T18:43:55.706Z,6.25
2022-08-27T18:49:28.382Z,6.73
2022-08-27T18:55:01.010Z,6.07
2022-08-27T19:00:32.713Z,6.10
2022-08-27T19:06:08.920Z,5.68
2022-08-27T19:11:42.021Z,6.55
2022-08-27T19:17:23.354Z,5.50
2022-08-27T19:22:54.940Z,5.80
2022-08-27T19:28:32.238Z,5.82
2022-08-27T19:34:06.387Z,6.95
2022-08-27T19:39:38.711Z,7.15
2022-08-27T19:45:10.904Z,6.45
2022-08-27T19:50:43.091Z,6.40
2022-08-27T19:56:15.549Z,6.80
2022-08-27T20:01:47.117Z,6.82
2022-08-27T20:07:19.574Z,6.80
2022-08-27T20:12:50.983Z,6.45
2022-08-27T20:18:22.398Z,6.55
2022-08-27T20:23:54.023Z,5.78
2022-08-27T20:29:32.737Z,5.90
2022-08-27T20:35:07.482Z,5.97
2022-08-27T20:40:39.521Z,5.80
2022-08-27T20:46:11.001Z,4.88
2022-08-27T20:52:02.307Z,4.97
2022-08-27T20:57:36.186Z,4.73
2022-08-27T21:03:11.718Z,4.97
2022-08-27T21:08:43.269Z,4.50
2022-08-27T21:14:15.640Z,4.35
2022-08-27T21:19:48.571Z,4.03
2022-08-27T21:25:24.841Z,4.18
2022-08-27T21:30:57.213Z,3.67
2022-08-27T21:36:29.861Z,4.32
2022-08-27T21:42:03.613Z,3.85
2022-08-27T21:47:36.929Z,3.60
2022-08-27T21:53:09.223Z,3.75
2022-08-27T21:58:41.114Z,3.38
2022-08-27T22:04:13.181Z,4.15
2022-08-27T22:09:44.260Z,3.45
2022-08-27T22:15:15.300Z,3.60
2022-08-27T22:20:46.538Z,4.00
2022-08-27T22:26:17.745Z,3.65
2022-08-27T22:31:49.076Z,3.83
2022-08-27T22:37:20.494Z,3.53
2022-08-27T22:42:52.050Z,3.75
2022-08-27T22:48:23.958Z,3.22
2022-08-27T22:53:55.208Z,3.22
2022-08-27T22:59:25.986Z,3.30
2022-08-27T23:04:56.903Z,3.70
2022-08-27T23:10:29.087Z,3.50
2022-08-27T23:16:02.083Z,3.38
2022-08-27T23:21:33.355Z,3.20
2022-08-27T23:27:23.086Z,3.25
2022-08-27T23:32:55.575Z,3.20
2022-08-27T23:38:26.920Z,3.10
2022-08-27T23:43:58.232Z,3.25
2022-08-27T23:49:30.165Z,3.25
2022-08-27T23:55:01.996Z,3.10
